createdAt,value
2019-05-10T00:00:55.244Z,5.73
2019-05-10T00:03:41.926Z,5.53
2019-05-10T00:06:28.636Z,10.63
2019-05-10T00:08:56.408Z,8.33
2019-05-10T00:11:43.137Z,6.57
2019-05-10T00:14:40.228Z,8.07
2019-05-10T00:17:20.385Z,4.93
2019-05-10T00:19:49.141Z,6.90
2019-05-10T00:22:17.822Z,7.57
2019-05-10T00:25:02.288Z,5.10
2019-05-10T00:27:16.661Z,9.97
2019-05-10T00:29:45.206Z,7.93
2019-05-10T00:32:13.793Z,6.20
2019-05-10T00:34:42.419Z,7.20
2019-05-10T00:37:10.986Z,7.60
2019-05-10T00:39:39.545Z,9.57
2019-05-10T00:42:08.106Z,6.87
2019-05-10T00:44:36.647Z,11.27
2019-05-10T00:47:05.221Z,9.37
2019-05-10T00:49:33.835Z,6.07
2019-05-10T00:52:02.353Z,5.83
2019-05-10T00:54:30.906Z,7.43
2019-05-10T00:56:59.465Z,8.20
2019-05-10T00:59:28.042Z,8.17
2019-05-10T01:01:56.589Z,7.57
2019-05-10T01:04:25.137Z,7.27
2019-05-10T01:06:56.333Z,6.77
2019-05-10T01:09:24.022Z,6.97
2019-05-10T01:11:52.616Z,7.17
2019-05-10T01:14:21.170Z,9.93
2019-05-10T01:16:49.727Z,9.70
2019-05-10T01:19:18.272Z,7.93
2019-05-10T01:21:46.853Z,7.23
2019-05-10T01:24:15.478Z,7.33
2019-05-10T01:26:47.207Z,11.30
2019-05-10T01:29:15.755Z,6.10
2019-05-10T01:31:44.429Z,8.50
2019-05-10T01:34:12.979Z,7.17
2019-05-10T01:36:41.548Z,5.93
2019-05-10T01:39:10.118Z,9.03
2019-05-10T01:41:38.678Z,9.80
2019-05-10T01:44:07.232Z,4.67
2019-05-10T01:46:35.778Z,7.47
2019-05-10T01:49:04.343Z,10.93
2019-05-10T01:51:32.922Z,8.60
2019-05-10T01:54:01.463Z,8.07
2019-05-10T01:56:29.980Z,11.43
2019-05-10T01:58:58.598Z,6.83
2019-05-10T02:01:27.142Z,10.00
2019-05-10T02:03:55.691Z,7.47
2019-05-10T02:06:24.237Z,9.50
2019-05-10T02:08:52.893Z,9.20
2019-05-10T02:11:21.415Z,11.33
2019-05-10T02:13:49.893Z,8.93
2019-05-10T02:16:18.471Z,11.03
2019-05-10T02:18:47.154Z,10.50
2019-05-10T02:21:15.708Z,10.93
2019-05-10T02:23:44.342Z,8.13
2019-05-10T02:26:12.928Z,13.27
2019-05-10T02:28:41.479Z,9.37
2019-05-10T02:31:10.055Z,8.10
2019-05-10T02:33:38.601Z,6.50
2019-05-10T02:36:07.156Z,10.40
2019-05-10T02:38:35.705Z,6.90
2019-05-10T02:41:04.342Z,9.60
2019-05-10T02:43:32.942Z,7.17
2019-05-10T02:46:01.516Z,7.57
2019-05-10T02:48:30.077Z,11.43
2019-05-10T02:50:58.768Z,9.27
2019-05-10T02:53:27.432Z,8.73
2019-05-10T02:55:56.887Z,8.07
2019-05-10T02:58:25.585Z,7.77
2019-05-10T03:00:54.790Z,9.07
2019-05-10T03:03:24.472Z,10.23
2019-05-10T03:05:53.459Z,8.83
2019-05-10T03:08:23.184Z,7.40
2019-05-10T03:10:56.329Z,6.27
2019-05-10T03:13:28.147Z,6.43
2019-05-10T03:15:58.518Z,9.93
2019-05-10T03:18:27.867Z,9.37
2019-05-10T03:20:58.244Z,6.73
2019-05-10T03:23:26.883Z,8.07
2019-05-10T03:25:55.877Z,9.10
2019-05-10T03:28:24.472Z,11.63
2019-05-10T03:30:53.015Z,11.53
2019-05-10T03:33:21.594Z,8.40
2019-05-10T03:35:50.218Z,9.07
2019-05-10T03:38:19.123Z,6.97
2019-05-10T03:40:47.662Z,12.43
2019-05-10T03:43:16.281Z,9.03
2019-05-10T03:45:44.843Z,9.00
2019-05-10T03:48:13.485Z,7.37
2019-05-10T03:50:42.049Z,12.97
2019-05-10T03:53:10.702Z,8.93
2019-05-10T03:55:39.261Z,11.07
2019-05-10T03:58:07.851Z,15.53
2019-05-10T04:00:36.396Z,9.20
2019-05-10T04:03:04.963Z,9.73
2019-05-10T04:05:33.593Z,5.97
2019-05-10T04:08:02.124Z,5.90
2019-05-10T04:10:30.720Z,8.20
2019-05-10T04:12:59.253Z,9.03
2019-05-10T04:15:27.876Z,9.20
2019-05-10T04:17:56.593Z,9.97
2019-05-10T04:20:25.191Z,10.23
2019-05-10T04:22:53.805Z,9.00
2019-05-10T04:25:22.422Z,9.20
2019-05-10T04:27:51.008Z,12.10
2019-05-10T04:30:20.606Z,7.40
2019-05-10T04:32:49.210Z,9.37
2019-05-10T04:35:17.787Z,7.07
2019-05-10T04:37:46.390Z,9.50
2019-05-10T04:40:15.059Z,9.03
2019-05-10T04:42:43.627Z,8.23
2019-05-10T04:45:12.170Z,7.17
2019-05-10T04:47:40.829Z,9.37
2019-05-10T04:50:09.456Z,12.20
2019-05-10T04:52:38.053Z,8.53
2019-05-10T04:55:06.654Z,8.83
2019-05-10T04:57:49.086Z,6.37
2019-05-10T05:00:07.499Z,8.77
2019-05-10T05:02:36.081Z,10.40
2019-05-10T05:05:04.847Z,7.60
2019-05-10T05:07:33.413Z,10.87
2019-05-10T05:10:02.009Z,11.53
2019-05-10T05:12:30.590Z,8.83
2019-05-10T05:14:59.228Z,10.27
2019-05-10T05:17:27.791Z,8.80
2019-05-10T05:19:56.352Z,11.77
2019-05-10T05:22:24.942Z,14.77
2019-05-10T05:24:55.098Z,11.00
2019-05-10T05:27:23.724Z,13.13
2019-05-10T05:29:52.333Z,10.17
2019-05-10T05:32:20.897Z,10.63
2019-05-10T05:34:49.456Z,12.13
2019-05-10T05:37:18.012Z,12.30
2019-05-10T05:39:46.650Z,11.83
2019-05-10T05:42:15.226Z,11.33
2019-05-10T05:44:43.777Z,11.13
2019-05-10T05:47:12.412Z,10.37
2019-05-10T05:49:41.083Z,15.67
2019-05-10T05:52:09.863Z,9.53
2019-05-10T05:54:38.712Z,13.73
2019-05-10T05:57:07.401Z,10.30
2019-05-10T05:59:35.989Z,9.47
2019-05-10T06:02:07.599Z,8.13
2019-05-10T06:04:34.934Z,14.07
2019-05-10T06:07:03.524Z,11.57
2019-05-10T06:09:37.671Z,9.57
2019-05-10T06:12:02.404Z,10.97
2019-05-10T06:14:30.988Z,11.80
2019-05-10T06:16:59.533Z,8.13
2019-05-10T06:19:29.655Z,8.77
2019-05-10T06:22:04.673Z,10.57
2019-05-10T06:24:28.682Z,12.30
2019-05-10T06:26:58.306Z,13.13
2019-05-10T06:29:27.545Z,8.70
2019-05-10T06:31:58.818Z,10.23
2019-05-10T06:34:26.425Z,12.40
2019-05-10T06:36:55.011Z,11.13
2019-05-10T06:39:23.648Z,12.43
2019-05-10T06:41:56.340Z,10.70
2019-05-10T06:44:25.084Z,11.27
2019-05-10T06:46:52.718Z,12.17
2019-05-10T06:49:21.263Z,12.77
2019-05-10T06:51:50.982Z,15.77
2019-05-10T06:54:19.690Z,13.93
2019-05-10T06:56:48.266Z,12.90
2019-05-10T06:59:19.449Z,12.73
2019-05-10T07:01:51.847Z,12.67
2019-05-10T07:04:17.385Z,13.80
2019-05-10T07:06:45.887Z,12.80
2019-05-10T07:09:14.413Z,14.93
2019-05-10T07:11:43.818Z,14.27
2019-05-10T07:14:12.537Z,14.07
2019-05-10T07:16:41.024Z,14.93
2019-05-10T07:19:09.613Z,16.23
2019-05-10T07:21:38.959Z,13.10
2019-05-10T07:24:08.316Z,13.47
2019-05-10T07:26:36.831Z,11.60
2019-05-10T07:29:05.421Z,13.63
2019-05-10T07:31:33.916Z,12.93
2019-05-10T07:34:02.417Z,9.23
2019-05-10T07:36:31.123Z,12.30
2019-05-10T07:39:02.845Z,9.03
2019-05-10T07:41:30.089Z,11.33
2019-05-10T07:44:00.564Z,10.20
2019-05-10T07:46:28.784Z,11.90
2019-05-10T07:48:57.333Z,10.83
2019-05-10T07:51:28.670Z,10.33
2019-05-10T07:53:56.997Z,10.83
2019-05-10T07:56:26.459Z,11.40
2019-05-10T07:58:54.998Z,11.37
2019-05-10T08:01:32.185Z,8.90
2019-05-10T08:03:53.822Z,10.30
2019-05-10T08:06:22.414Z,10.50
2019-05-10T08:08:55.526Z,9.03
2019-05-10T08:11:21.237Z,10.97
2019-05-10T08:13:49.775Z,12.00
2019-05-10T08:16:22.785Z,14.10
2019-05-10T08:18:49.766Z,10.03
2019-05-10T08:21:22.212Z,14.77
2019-05-10T08:23:48.831Z,10.80
2019-05-10T08:26:21.950Z,12.67
2019-05-10T08:28:47.695Z,11.03
2019-05-10T08:31:16.281Z,13.17
2019-05-10T08:33:56.260Z,11.10
2019-05-10T08:36:15.119Z,10.67
2019-05-10T08:38:47.264Z,12.57
2019-05-10T08:41:18.108Z,12.90
2019-05-10T08:43:44.277Z,9.97
2019-05-10T08:46:12.838Z,9.10
2019-05-10T08:48:46.698Z,12.97
2019-05-10T08:51:12.602Z,10.03
2019-05-10T08:53:42.090Z,9.00
2019-05-10T08:56:13.846Z,8.67
2019-05-10T08:58:42.257Z,9.87
2019-05-10T09:01:23.897Z,11.97
2019-05-10T09:03:42.070Z,11.17
2019-05-10T09:06:15.903Z,9.47
2019-05-10T09:08:43.187Z,10.20
2019-05-10T09:11:11.930Z,14.47
2019-05-10T09:13:42.455Z,11.27
2019-05-10T09:16:13.018Z,14.83
2019-05-10T09:18:46.132Z,12.77
2019-05-10T09:21:14.207Z,10.30
2019-05-10T09:23:42.699Z,10.83
2019-05-10T09:26:16.207Z,11.43
2019-05-10T09:28:42.233Z,9.30
2019-05-10T09:31:22.662Z,9.73
2019-05-10T09:33:49.311Z,12.40
2019-05-10T09:36:13.128Z,10.47
2019-05-10T09:38:44.206Z,10.83
2019-05-10T09:41:13.010Z,14.00
2019-05-10T09:43:48.339Z,10.50
2019-05-10T09:46:14.125Z,8.53
2019-05-10T09:48:45.075Z,8.97
2019-05-10T09:51:19.120Z,11.67
2019-05-10T09:53:48.684Z,6.23
2019-05-10T09:56:17.866Z,6.73
2019-05-10T09:58:48.442Z,10.30
2019-05-10T10:01:21.413Z,5.17
2019-05-10T10:03:48.504Z,10.43
2019-05-10T10:06:17.605Z,14.17
2019-05-10T10:08:51.303Z,8.17
2019-05-10T10:11:18.745Z,10.70
2019-05-10T10:13:50.282Z,9.13
2019-05-10T10:16:19.335Z,8.43
2019-05-10T10:18:48.487Z,9.40
2019-05-10T10:21:18.948Z,10.23
2019-05-10T10:23:48.392Z,6.67
2019-05-10T10:26:21.173Z,7.90
2019-05-10T10:28:49.696Z,8.83
2019-05-10T10:31:28.715Z,6.77
2019-05-10T10:33:58.014Z,8.40
2019-05-10T10:36:20.685Z,7.37
2019-05-10T10:38:49.956Z,7.37
2019-05-10T10:41:25.934Z,7.27
2019-05-10T10:43:49.986Z,4.97
2019-05-10T10:46:19.928Z,6.57
2019-05-10T10:48:51.297Z,4.53
2019-05-10T10:51:19.927Z,4.07
2019-05-10T10:53:49.006Z,3.97
2019-05-10T10:56:18.107Z,5.00
2019-05-10T10:58:49.621Z,6.33
2019-05-10T11:01:24.994Z,5.13
2019-05-10T11:03:49.155Z,7.90
2019-05-10T11:06:18.402Z,7.40
2019-05-10T11:08:47.464Z,4.57
2019-05-10T11:11:16.548Z,6.90
2019-05-10T11:13:51.466Z,5.33
2019-05-10T11:16:16.293Z,4.90
2019-05-10T11:18:45.425Z,7.13
2019-05-10T11:21:14.477Z,5.30
2019-05-10T11:23:43.632Z,6.47
2019-05-10T11:26:12.734Z,7.83
2019-05-10T11:28:44.198Z,5.97
2019-05-10T11:31:12.580Z,6.13
2019-05-10T11:33:41.867Z,4.50
2019-05-10T11:36:12.500Z,6.50
2019-05-10T11:38:42.143Z,6.13
2019-05-10T11:41:13.596Z,5.60
2019-05-10T11:43:42.147Z,7.80
2019-05-10T11:46:11.739Z,5.70
2019-05-10T11:48:42.210Z,4.40
2019-05-10T11:51:17.173Z,5.83
2019-05-10T11:53:42.407Z,8.90
2019-05-10T11:58:46.010Z,7.43
2019-05-10T12:01:17.571Z,4.80
2019-05-10T12:03:43.728Z,4.47
2019-05-10T12:06:12.813Z,9.90
2019-05-10T12:08:42.140Z,4.90
2019-05-10T12:11:27.497Z,3.93
2019-05-10T12:13:42.034Z,4.87
2019-05-10T12:18:46.712Z,8.73
2019-05-10T12:21:12.678Z,6.17
2019-05-10T12:23:50.441Z,6.10
2019-05-10T12:26:27.769Z,6.77
2019-05-10T12:26:30.550Z,5.17
2019-05-10T12:28:43.304Z,5.37
2019-05-10T12:31:15.930Z,5.77
2019-05-10T12:33:45.468Z,4.97
2019-05-10T12:36:23.780Z,6.63
2019-05-10T12:38:44.647Z,5.03
2019-05-10T12:41:13.698Z,6.50
2019-05-10T12:43:43.669Z,3.97
2019-05-10T12:46:12.922Z,6.30
2019-05-10T12:48:42.652Z,2.77
2019-05-10T12:51:15.739Z,4.20
2019-05-10T12:53:47.750Z,6.10
2019-05-10T12:56:13.493Z,4.00
2019-05-10T12:58:42.631Z,2.57
2019-05-10T13:01:11.682Z,2.83
2019-05-10T13:03:40.740Z,6.30
2019-05-10T13:06:09.806Z,4.60
2019-05-10T13:08:38.891Z,2.80
2019-05-10T13:11:07.943Z,4.47
2019-05-10T13:13:37.030Z,3.20
2019-05-10T13:16:09.608Z,6.80
2019-05-10T13:18:52.721Z,3.23
2019-05-10T13:21:13.194Z,2.50
2019-05-10T13:23:38.468Z,5.20
2019-05-10T13:26:07.558Z,5.50
2019-05-10T13:28:36.631Z,3.20
2019-05-10T13:31:07.136Z,3.77
2019-05-10T13:33:41.911Z,5.50
2019-05-10T13:36:07.190Z,5.70
2019-05-10T13:38:37.055Z,3.40
2019-05-10T13:41:26.661Z,5.30
2019-05-10T13:43:58.811Z,5.63
2019-05-10T13:46:26.581Z,3.70
2019-05-10T13:48:55.720Z,3.67
2019-05-10T13:51:24.803Z,4.40
2019-05-10T13:53:58.811Z,4.07
2019-05-10T13:56:24.699Z,5.57
2019-05-10T13:58:53.845Z,4.73
2019-05-10T14:01:22.915Z,5.60
2019-05-10T14:03:59.883Z,4.80
2019-05-10T14:06:22.774Z,3.37
2019-05-10T14:08:51.828Z,3.73
2019-05-10T14:11:20.930Z,4.63
2019-05-10T14:13:49.995Z,4.90
2019-05-10T14:16:22.004Z,5.80
2019-05-10T14:18:49.874Z,5.13
2019-05-10T14:21:18.939Z,3.13
2019-05-10T14:23:48.028Z,4.63
2019-05-10T14:26:18.329Z,4.33
2019-05-10T14:28:53.082Z,4.37
2019-05-10T14:31:18.441Z,4.93
2019-05-10T14:34:04.497Z,5.27
2019-05-10T14:36:18.311Z,4.40
2019-05-10T14:39:07.163Z,2.43
2019-05-10T14:41:39.646Z,3.60
2019-05-10T14:44:07.032Z,5.00
2019-05-10T14:46:36.178Z,2.43
2019-05-10T14:49:09.818Z,2.60
2019-05-10T14:51:49.402Z,3.07
2019-05-10T14:54:08.911Z,2.77
2019-05-10T14:56:37.660Z,6.20
2019-05-10T14:59:06.825Z,4.17
2019-05-10T15:01:36.764Z,3.93
2019-05-10T15:04:06.661Z,5.50
2019-05-10T15:06:36.865Z,2.87
2019-05-10T15:09:20.260Z,4.30
2019-05-10T15:11:39.063Z,5.83
2019-05-10T15:14:08.164Z,4.87
2019-05-10T15:16:37.465Z,2.87
2019-05-10T15:19:06.550Z,2.77
2019-05-10T15:21:36.040Z,4.03
2019-05-10T15:24:05.335Z,2.33
2019-05-10T15:26:37.442Z,3.83
2019-05-10T15:29:05.108Z,3.57
2019-05-10T15:31:34.243Z,5.00
2019-05-10T15:34:05.155Z,1.63
2019-05-10T15:36:34.146Z,4.63
2019-05-10T15:39:03.541Z,4.87
2019-05-10T15:41:32.654Z,4.53
2019-05-10T15:44:01.803Z,2.23
2019-05-10T15:46:39.863Z,2.23
2019-05-10T15:49:01.587Z,3.20
2019-05-10T15:51:36.288Z,3.67
2019-05-10T15:54:04.783Z,5.40
2019-05-10T15:56:35.749Z,2.07
2019-05-10T15:59:03.057Z,2.97
2019-05-10T16:01:32.125Z,1.97
2019-05-10T16:04:01.148Z,4.27
2019-05-10T16:06:32.485Z,7.90
2019-05-10T16:09:03.573Z,3.63
2019-05-10T16:11:31.728Z,4.07
2019-05-10T16:14:01.699Z,6.10
2019-05-10T16:16:37.237Z,4.20
2019-05-10T16:19:01.665Z,4.07
2019-05-10T16:21:30.739Z,5.37
2019-05-10T16:23:59.753Z,7.37
2019-05-10T16:26:28.809Z,7.10
2019-05-10T16:29:02.005Z,7.47
2019-05-10T16:31:28.636Z,43.77
2019-05-10T16:33:57.709Z,18.73
2019-05-10T16:36:28.332Z,40.23
2019-05-10T16:39:01.136Z,34.03
2019-05-10T16:41:28.351Z,28.23
2019-05-10T16:43:58.435Z,6.67
2019-05-10T16:46:28.198Z,10.50
2019-05-10T16:48:58.317Z,8.60
2019-05-10T16:51:28.007Z,13.67
2019-05-10T16:53:58.030Z,7.60
2019-05-10T16:56:27.152Z,9.23
2019-05-10T16:58:59.330Z,8.77
2019-05-10T17:01:27.862Z,9.50
2019-05-10T17:04:00.377Z,9.90
2019-05-10T17:06:28.502Z,9.33
2019-05-10T17:08:57.923Z,11.13
2019-05-10T17:11:27.019Z,7.37
2019-05-10T17:13:59.218Z,10.97
2019-05-10T17:16:28.469Z,8.43
2019-05-10T17:18:57.525Z,7.40
2019-05-10T17:21:26.645Z,8.67
2019-05-10T17:23:55.688Z,7.00
2019-05-10T17:26:24.757Z,7.97
2019-05-10T17:28:53.793Z,8.17
2019-05-10T17:31:22.893Z,9.23
2019-05-10T17:33:51.947Z,8.63
2019-05-10T17:36:21.560Z,7.33
2019-05-10T17:38:53.511Z,7.07
2019-05-10T17:41:25.016Z,7.63
2019-05-10T17:43:52.526Z,7.00
2019-05-10T17:46:21.601Z,8.03
2019-05-10T17:48:50.714Z,5.90
2019-05-10T17:51:19.781Z,9.93
2019-05-10T17:53:55.111Z,8.27
2019-05-10T17:56:19.588Z,8.30
2019-05-10T17:58:48.559Z,7.30
2019-05-10T18:01:18.425Z,7.87
2019-05-10T18:03:47.507Z,8.03
2019-05-10T18:06:24.183Z,8.60
2019-05-10T18:08:47.198Z,11.23
2019-05-10T18:11:16.324Z,7.87
2019-05-10T18:13:45.356Z,8.70
2019-05-10T18:16:14.458Z,9.90
2019-05-10T18:18:47.187Z,8.97
2019-05-10T18:21:15.880Z,9.47
2019-05-10T18:23:45.128Z,7.97
2019-05-10T18:26:14.204Z,10.07
2019-05-10T18:28:44.781Z,8.60
2019-05-10T18:31:13.881Z,9.60
2019-05-10T18:33:44.723Z,8.53
2019-05-10T18:36:13.742Z,9.20
2019-05-10T18:38:42.812Z,11.27
2019-05-10T18:41:11.949Z,9.43
2019-05-10T18:43:42.825Z,8.80
2019-05-10T18:46:11.839Z,9.03
2019-05-10T18:48:40.945Z,9.20
2019-05-10T18:51:10.014Z,9.40
2019-05-10T18:53:39.008Z,10.47
2019-05-10T18:56:08.098Z,10.13
2019-05-10T18:58:37.155Z,8.97
2019-05-10T19:01:06.203Z,9.17
2019-05-10T19:03:35.520Z,8.30
2019-05-10T19:06:11.139Z,9.07
2019-05-10T19:08:35.474Z,10.20
2019-05-10T19:11:05.014Z,8.80
2019-05-10T19:13:45.952Z,10.97
2019-05-10T19:16:05.318Z,10.73
2019-05-10T19:18:34.395Z,10.57
2019-05-10T19:21:03.503Z,10.10
2019-05-10T19:23:32.593Z,10.83
2019-05-10T19:26:01.653Z,10.27
2019-05-10T19:28:30.753Z,14.03
2019-05-10T19:31:00.559Z,9.87
2019-05-10T19:33:36.150Z,9.70
2019-05-10T19:36:00.489Z,9.27
2019-05-10T19:38:29.465Z,9.50
2019-05-10T19:40:58.571Z,12.47
2019-05-10T19:43:27.825Z,11.93
2019-05-10T19:45:58.093Z,10.43
2019-05-10T19:48:29.395Z,8.57
2019-05-10T19:51:02.984Z,9.77
2019-05-10T19:53:29.372Z,10.53
2019-05-10T19:55:59.240Z,8.50
2019-05-10T19:58:32.436Z,11.27
2019-05-10T20:00:59.254Z,11.23
2019-05-10T20:03:28.498Z,11.47
2019-05-10T20:05:57.503Z,8.50
2019-05-10T20:08:26.642Z,10.87
2019-05-10T20:10:55.636Z,10.17
2019-05-10T20:13:24.757Z,10.53
2019-05-10T20:15:53.843Z,11.17
2019-05-10T20:18:22.896Z,10.38
2019-05-10T20:20:51.959Z,10.60
2019-05-10T20:23:21.054Z,10.60
2019-05-10T20:25:49.943Z,13.27
2019-05-10T20:28:19.037Z,11.57
2019-05-10T20:30:48.101Z,11.60
2019-05-10T20:33:17.219Z,10.97
2019-05-10T20:35:46.285Z,13.60
2019-05-10T20:38:15.329Z,12.57
2019-05-10T20:40:44.402Z,12.13
2019-05-10T20:43:13.526Z,14.03
2019-05-10T20:45:42.576Z,13.93
2019-05-10T20:48:11.674Z,13.27
2019-05-10T20:50:40.762Z,13.63
2019-05-10T20:53:09.855Z,13.40
2019-05-10T20:55:38.930Z,12.23
2019-05-10T20:58:08.106Z,11.97
2019-05-10T21:00:37.185Z,11.43
2019-05-10T21:03:06.293Z,15.40
2019-05-10T21:05:35.325Z,13.20
2019-05-10T21:08:16.083Z,14.87
2019-05-10T21:10:35.210Z,10.90
2019-05-10T21:13:04.259Z,14.00
2019-05-10T21:15:33.369Z,10.03
2019-05-10T21:18:02.407Z,14.10
2019-05-10T21:20:31.495Z,12.47
2019-05-10T21:23:00.587Z,13.03
2019-05-10T21:25:29.631Z,12.53
2019-05-10T21:27:58.731Z,12.17
2019-05-10T21:30:27.847Z,12.53
2019-05-10T21:32:56.897Z,10.97
2019-05-10T21:35:28.373Z,11.47
2019-05-10T21:37:57.448Z,10.37
2019-05-10T21:40:26.525Z,13.17
2019-05-10T21:42:55.832Z,14.07
2019-05-10T21:45:24.895Z,11.83
2019-05-10T21:47:53.973Z,12.53
2019-05-10T21:50:24.363Z,14.37
2019-05-10T21:52:53.512Z,13.97
2019-05-10T21:55:22.623Z,12.83
2019-05-10T21:57:51.673Z,15.73
2019-05-10T22:00:25.113Z,13.03
2019-05-10T22:02:54.290Z,10.13
2019-05-10T22:05:22.819Z,11.23
2019-05-10T22:07:51.961Z,13.53
2019-05-10T22:10:21.106Z,11.60
2019-05-10T22:12:50.159Z,10.77
2019-05-10T22:15:19.266Z,11.30
2019-05-10T22:17:48.315Z,11.83
2019-05-10T22:20:17.372Z,14.10
2019-05-10T22:22:46.496Z,10.77
2019-05-10T22:25:15.531Z,12.47
2019-05-10T22:27:44.542Z,13.30
2019-05-10T22:30:13.823Z,12.83
2019-05-10T22:32:42.924Z,13.90
2019-05-10T22:35:12.106Z,18.87
2019-05-10T22:37:41.190Z,16.00
2019-05-10T22:40:10.287Z,17.10
2019-05-10T22:42:39.466Z,16.90
2019-05-10T22:45:08.528Z,15.07
2019-05-10T22:47:37.654Z,17.07
2019-05-10T22:50:06.790Z,15.90
2019-05-10T22:52:35.875Z,15.13
2019-05-10T22:55:06.520Z,16.37
2019-05-10T22:57:35.640Z,17.50
2019-05-10T23:00:05.404Z,19.40
2019-05-10T23:02:34.474Z,18.60
2019-05-10T23:05:03.782Z,15.03
2019-05-10T23:07:32.888Z,19.77
2019-05-10T23:10:01.975Z,19.73
2019-05-10T23:12:31.067Z,17.57
2019-05-10T23:15:00.044Z,19.23
2019-05-10T23:17:29.142Z,19.80
2019-05-10T23:19:58.250Z,18.83
2019-05-10T23:22:27.331Z,17.20
2019-05-10T23:24:56.474Z,19.20
2019-05-10T23:27:25.540Z,20.23
2019-05-10T23:29:54.661Z,22.90
2019-05-10T23:32:23.834Z,25.53
2019-05-10T23:34:52.887Z,21.43
2019-05-10T23:37:21.959Z,21.67
2019-05-10T23:39:50.953Z,21.67
2019-05-10T23:42:20.049Z,21.50
2019-05-10T23:44:49.158Z,22.83
2019-05-10T23:47:18.232Z,22.13
2019-05-10T23:49:47.216Z,23.70
2019-05-10T23:52:16.334Z,23.80
2019-05-10T23:54:45.399Z,27.23
2019-05-10T23:57:14.516Z,27.77
2019-05-10T23:59:43.579Z,26.40
